createdAt,value
2022-08-25T00:01:40.273Z,71.29
2022-08-25T00:04:11.038Z,72.17
2022-08-25T00:06:42.211Z,73.37
2022-08-25T00:09:11.456Z,72.27
2022-08-25T00:11:40.007Z,72.15
2022-08-25T00:14:23.501Z,72.27
2022-08-25T00:16:50.237Z,73.12
2022-08-25T00:19:25.102Z,72.76
2022-08-25T00:21:52.001Z,72.21
2022-08-25T00:24:20.464Z,72.11
2022-08-25T00:26:50.075Z,72.58
2022-08-25T00:29:17.219Z,73.43
2022-08-25T00:31:44.502Z,73.28
2022-08-25T00:34:17.636Z,73.67
2022-08-25T00:36:45.021Z,72.94
2022-08-25T00:39:12.027Z,73.14
2022-08-25T00:41:44.267Z,73.77
2022-08-25T00:44:13.181Z,74.29
2022-08-25T00:46:43.695Z,75.11
2022-08-25T00:49:25.043Z,75.47
2022-08-25T00:52:16.160Z,78.27
2022-08-25T00:54:56.034Z,77.27
2022-08-25T00:57:35.115Z,78.05
2022-08-25T01:00:11.351Z,78.25
2022-08-25T01:02:39.218Z,78.69
2022-08-25T01:05:06.715Z,79.83
2022-08-25T01:07:35.257Z,79.88
2022-08-25T01:10:08.038Z,80.35
2022-08-25T01:12:34.974Z,82.02
2022-08-25T01:15:04.737Z,81.82
2022-08-25T01:17:53.177Z,81.56
2022-08-25T01:20:29.354Z,81.30
2022-08-25T01:23:00.555Z,82.27
2022-08-25T01:25:32.781Z,82.22
2022-08-25T01:27:59.812Z,82.33
2022-08-25T01:30:26.989Z,82.46
2022-08-25T01:32:53.861Z,82.73
2022-08-25T01:35:24.441Z,82.79
2022-08-25T01:37:51.034Z,83.47
2022-08-25T01:40:17.960Z,84.12
2022-08-25T01:42:54.107Z,84.80
2022-08-25T01:45:23.832Z,85.06
2022-08-25T01:47:50.594Z,85.30
2022-08-25T01:50:17.426Z,85.71
2022-08-25T01:53:03.326Z,86.52
2022-08-25T01:55:51.845Z,86.81
2022-08-25T01:58:32.929Z,87.47
2022-08-25T02:01:03.221Z,86.55
2022-08-25T02:03:31.116Z,87.07
2022-08-25T02:06:04.240Z,87.34
2022-08-25T02:08:31.600Z,87.89
2022-08-25T02:10:58.198Z,88.39
2022-08-25T02:13:26.969Z,88.39
2022-08-25T02:16:00.992Z,88.80
2022-08-25T02:18:34.421Z,89.41
2022-08-25T02:21:01.340Z,90.07
2022-08-25T02:23:28.309Z,90.05
2022-08-25T02:25:59.405Z,90.33
2022-08-25T02:28:26.318Z,90.63
2022-08-25T02:30:53.135Z,91.72
2022-08-25T02:33:34.121Z,91.51
2022-08-25T02:36:03.668Z,91.94
2022-08-25T02:38:30.635Z,92.22
2022-08-25T02:40:58.817Z,92.06
2022-08-25T02:43:26.294Z,92.48
2022-08-25T02:45:55.506Z,92.87
2022-08-25T02:48:27.719Z,93.37
2022-08-25T02:50:54.324Z,94.57
2022-08-25T02:53:21.563Z,94.46
2022-08-25T02:55:50.391Z,94.27
2022-08-25T02:58:16.955Z,94.50
2022-08-25T03:00:43.869Z,94.57
2022-08-25T03:03:12.163Z,94.66
2022-08-25T03:05:39.041Z,95.61
2022-08-25T03:08:07.054Z,95.67
2022-08-25T03:10:36.067Z,95.45
2022-08-25T03:13:03.078Z,95.98
2022-08-25T03:15:30.580Z,97.54
2022-08-25T03:17:59.792Z,98.21
2022-08-25T03:20:27.954Z,97.09
2022-08-25T03:22:54.536Z,97.20
2022-08-25T03:25:41.341Z,97.45
2022-08-25T03:28:10.301Z,98.36
2022-08-25T03:30:36.861Z,98.67
2022-08-25T03:33:04.138Z,98.43
2022-08-25T03:35:31.038Z,98.92
2022-08-25T03:37:59.162Z,98.23
2022-08-25T03:40:31.347Z,97.85
2022-08-25T03:43:00.711Z,98.32
2022-08-25T03:45:30.932Z,98.08
2022-08-25T03:47:57.725Z,98.82
2022-08-25T03:50:24.392Z,98.24
2022-08-25T03:52:55.839Z,97.58
2022-08-25T03:55:26.523Z,98.36
2022-08-25T03:57:54.699Z,99.37
2022-08-25T04:00:23.376Z,99.45
2022-08-25T04:02:52.434Z,98.79
2022-08-25T04:08:06.003Z,99.82
2022-08-25T04:10:32.745Z,98.92
2022-08-25T04:12:59.998Z,98.79
2022-08-25T04:15:27.144Z,98.33
2022-08-25T04:17:57.231Z,98.33
2022-08-25T04:20:30.379Z,97.70
2022-08-25T04:23:00.864Z,99.04
2022-08-25T04:25:27.539Z,99.54
2022-08-25T04:27:55.380Z,100.00
2022-08-25T04:30:22.274Z,99.94
2022-08-25T04:32:49.656Z,100.00
2022-08-25T04:35:16.760Z,99.85
2022-08-25T04:37:43.545Z,99.97
2022-08-25T04:40:10.899Z,99.88
2022-08-25T04:42:37.504Z,100.00
2022-08-25T04:45:13.151Z,99.75
2022-08-25T04:47:39.971Z,99.56
2022-08-25T04:50:07.719Z,99.09
2022-08-25T04:52:34.537Z,100.00
2022-08-25T04:55:01.203Z,100.00
2022-08-25T04:57:31.435Z,100.00
2022-08-25T04:59:58.140Z,98.17
2022-08-25T05:02:25.338Z,97.17
2022-08-25T05:04:52.263Z,95.33
2022-08-25T05:07:20.671Z,93.70
2022-08-25T05:09:47.545Z,92.18
2022-08-25T05:12:14.112Z,91.17
2022-08-25T05:14:40.801Z,89.27
2022-08-25T05:17:07.542Z,88.05
2022-08-25T05:19:34.185Z,85.55
2022-08-25T05:22:02.593Z,84.85
2022-08-25T05:24:29.746Z,82.81
2022-08-25T05:26:56.516Z,81.43
2022-08-25T05:29:29.819Z,79.42
2022-08-25T05:31:56.545Z,78.16
2022-08-25T05:34:23.284Z,77.13
2022-08-25T05:36:51.713Z,75.58
2022-08-25T05:39:18.436Z,74.81
2022-08-25T05:41:45.015Z,74.35
2022-08-25T05:44:17.903Z,72.78
2022-08-25T05:46:47.313Z,71.60
2022-08-25T05:49:13.866Z,70.92
2022-08-25T05:51:42.337Z,69.37
2022-08-25T05:54:09.123Z,68.68
2022-08-25T05:56:36.130Z,67.35
2022-08-25T05:59:09.103Z,67.77
2022-08-25T06:01:54.651Z,65.58
2022-08-25T06:04:22.751Z,64.59
2022-08-25T06:06:53.394Z,65.60
2022-08-25T06:09:20.088Z,65.51
2022-08-25T06:11:55.590Z,64.40
2022-08-25T06:14:22.715Z,62.88
2022-08-25T06:16:51.545Z,63.45
2022-08-25T06:19:22.589Z,64.03
2022-08-25T06:21:49.705Z,62.12
2022-08-25T06:24:16.253Z,63.46
2022-08-25T06:26:45.849Z,62.05
2022-08-25T06:29:14.722Z,62.21
2022-08-25T06:31:42.719Z,60.40
2022-08-25T06:34:10.494Z,58.97
2022-08-25T06:36:37.030Z,59.65
2022-08-25T06:39:04.576Z,57.70
2022-08-25T06:41:37.697Z,58.39
2022-08-25T06:44:05.384Z,59.16
2022-08-25T06:46:36.402Z,58.14
2022-08-25T06:49:08.339Z,57.50
2022-08-25T06:51:38.296Z,57.13
2022-08-25T06:54:06.683Z,55.74
2022-08-25T06:56:34.352Z,55.19
2022-08-25T06:59:02.273Z,56.96
2022-08-25T07:01:29.495Z,55.29
2022-08-25T07:04:04.265Z,55.04
2022-08-25T07:06:35.386Z,54.27
2022-08-25T07:09:11.865Z,55.16
2022-08-25T07:11:43.223Z,53.92
2022-08-25T07:14:12.935Z,52.76
2022-08-25T07:16:49.639Z,53.23
2022-08-25T07:19:20.783Z,51.71
2022-08-25T07:21:53.795Z,51.91
2022-08-25T07:24:21.632Z,52.11
2022-08-25T07:26:48.436Z,52.47
2022-08-25T07:29:31.728Z,51.65
2022-08-25T07:32:01.011Z,52.57
2022-08-25T07:34:55.287Z,53.01
2022-08-25T07:37:48.134Z,51.86
2022-08-25T07:40:16.655Z,52.78
2022-08-25T07:42:45.321Z,51.19
2022-08-25T07:45:13.763Z,53.66
2022-08-25T07:47:46.822Z,50.87
2022-08-25T07:50:13.750Z,51.42
2022-08-25T07:52:41.443Z,51.79
2022-08-25T07:55:11.514Z,50.60
2022-08-25T07:57:40.219Z,50.10
2022-08-25T08:00:10.757Z,50.93
2022-08-25T08:02:43.744Z,49.68
2022-08-25T08:05:12.153Z,49.68
2022-08-25T08:07:43.025Z,50.45
2022-08-25T08:13:02.363Z,49.79
